Time;durP1;ratioP1;P1;durP2;ratioP2;P2;SDS_P1;SDS_P2;PMS_P1;PMS_P2;Temp;Humidity;BMP_temperature;BMP_pressure;BME280_temperature;BME280_humidity;BME280_pressure;Samples;Min_cycle;Max_cycle;Signal;HPM_P1;HPM_P2
2023/04/18 00:01:37;;;;;;;2.30;2.20;;;;;;;;;;5032470;28;20030;-59
2023/04/18 00:04:03;;;;;;;2.30;2.13;;;;;;;;;;5033252;28;20034;-59
2023/04/18 00:06:30;;;;;;;2.30;2.10;;;;;;;;;;5033328;28;20037;-59
2023/04/18 00:08:55;;;;;;;2.53;2.33;;;;;;;;;;5032682;28;20069;-59
2023/04/18 00:11:20;;;;;;;2.53;2.42;;;;;;;;;;5032736;28;20022;-58
2023/04/18 00:13:46;;;;;;;2.80;2.60;;;;;;;;;;5033279;28;20117;-58
2023/04/18 00:16:12;;;;;;;2.70;2.50;;;;;;;;;;5032861;28;20087;-57
2023/04/18 00:18:38;;;;;;;2.67;2.53;;;;;;;;;;5032950;28;20490;-58
2023/04/18 00:21:04;;;;;;;2.95;2.75;;;;;;;;;;5014595;28;20030;-58
2023/04/18 00:23:30;;;;;;;2.88;2.65;;;;;;;;;;5033768;28;20498;-58
2023/04/18 00:25:55;;;;;;;3.03;2.83;;;;;;;;;;5033188;28;20038;-58
2023/04/18 00:28:20;;;;;;;3.40;3.15;;;;;;;;;;5031193;28;20036;-58
2023/04/18 00:30:47;;;;;;;3.60;3.33;;;;;;;;;;5014055;28;20391;-58
2023/04/18 00:33:19;;;;;;;3.35;3.10;;;;;;;;;;5032984;28;20040;-58
2023/04/18 00:35:44;;;;;;;3.20;3.00;;;;;;;;;;5033542;28;20026;-58
2023/04/18 00:38:11;;;;;;;2.80;2.60;;;;;;;;;;5034201;28;20032;-58
2023/04/18 00:40:39;;;;;;;3.35;2.90;;;;;;;;;;5034432;28;20038;-59
2023/04/18 00:43:06;;;;;;;4.30;3.00;;;;;;;;;;5016655;28;20017;-58
2023/04/18 00:45:33;;;;;;;3.13;2.92;;;;;;;;;;5034272;28;20041;-58
2023/04/18 00:47:58;;;;;;;2.95;2.75;;;;;;;;;;5033962;28;20087;-59
2023/04/18 00:50:24;;;;;;;4.07;3.15;;;;;;;;;;5033301;28;20104;-58
2023/04/18 00:52:49;;;;;;;3.05;2.85;;;;;;;;;;5032725;28;20053;-66
2023/04/18 00:55:15;;;;;;;3.42;3.22;;;;;;;;;;5032803;28;20041;-67
2023/04/18 00:57:42;;;;;;;2.95;2.70;;;;;;;;;;5014996;28;20029;-59
2023/04/18 01:00:11;;;;;;;3.63;3.35;;;;;;;;;;5031392;28;20045;-67
2023/04/18 01:02:36;;;;;;;3.58;3.28;;;;;;;;;;5032806;28;20029;-66
2023/04/18 01:05:03;;;;;;;3.75;3.45;;;;;;;;;;5015057;28;20041;-66
2023/04/18 01:07:30;;;;;;;3.85;3.50;;;;;;;;;;5013865;28;20037;-58
2023/04/18 01:09:56;;;;;;;3.50;3.30;;;;;;;;;;5030163;28;20123;-58
2023/04/18 01:12:21;;;;;;;4.00;3.72;;;;;;;;;;5032251;28;20061;-58
2023/04/18 01:14:46;;;;;;;3.38;3.13;;;;;;;;;;5031870;28;20026;-58
2023/04/18 01:17:12;;;;;;;3.38;3.08;;;;;;;;;;5030505;28;20072;-58
2023/04/18 01:19:38;;;;;;;2.88;2.67;;;;;;;;;;5030318;28;20032;-57
2023/04/18 01:22:06;;;;;;;3.40;3.20;;;;;;;;;;5031698;28;20440;-58
2023/04/18 01:24:32;;;;;;;3.35;3.10;;;;;;;;;;5031584;28;20032;-58
2023/04/18 01:27:01;;;;;;;3.13;2.92;;;;;;;;;;5031140;28;20120;-57
2023/04/18 01:29:27;;;;;;;4.20;3.60;;;;;;;;;;5014070;28;20018;-57
2023/04/18 01:31:52;;;;;;;3.63;3.42;;;;;;;;;;5031672;28;20029;-58
2023/04/18 01:34:17;;;;;;;4.00;2.97;;;;;;;;;;5030275;28;20528;-58
2023/04/18 01:36:43;;;;;;;3.17;3.00;;;;;;;;;;5029648;28;20041;-58
2023/04/18 01:39:11;;;;;;;3.83;3.63;;;;;;;;;;5031552;28;20036;-58
2023/04/18 01:41:36;;;;;;;3.55;3.25;;;;;;;;;;5029249;28;20041;-67
2023/04/18 01:44:01;;;;;;;3.38;3.17;;;;;;;;;;5031576;28;20395;-57
2023/04/18 01:46:31;;;;;;;3.38;3.08;;;;;;;;;;5031755;28;20037;-57
2023/04/18 01:48:56;;;;;;;2.95;2.75;;;;;;;;;;5032905;28;20037;-57
2023/04/18 01:51:22;;;;;;;3.28;3.00;;;;;;;;;;5015224;28;20040;-57
2023/04/18 01:53:47;;;;;;;3.38;3.17;;;;;;;;;;5031064;28;20041;-58
2023/04/18 01:56:13;;;;;;;3.13;2.92;;;;;;;;;;5014000;28;20395;-58
2023/04/18 01:58:41;;;;;;;3.00;2.83;;;;;;;;;;5030561;28;20030;-58
2023/04/18 02:01:06;;;;;;;4.05;3.30;;;;;;;;;;5030290;28;20498;-58
2023/04/18 02:03:32;;;;;;;4.07;3.78;;;;;;;;;;5031391;28;20040;-58
2023/04/18 02:05:58;;;;;;;4.70;4.35;;;;;;;;;;5013183;28;20030;-58
2023/04/18 02:08:24;;;;;;;4.18;3.88;;;;;;;;;;5031244;28;20037;-59
2023/04/18 02:10:49;;;;;;;4.60;4.30;;;;;;;;;;5031475;28;20064;-59
2023/04/18 02:13:15;;;;;;;5.18;4.68;;;;;;;;;;5030769;28;20036;-58
2023/04/18 02:15:40;;;;;;;5.32;4.85;;;;;;;;;;5029479;28;20038;-58
2023/04/18 02:18:05;;;;;;;5.53;5.03;;;;;;;;;;5031915;28;20111;-58
2023/04/18 02:20:32;;;;;;;6.22;5.63;;;;;;;;;;5013359;28;20395;-58
2023/04/18 02:23:01;;;;;;;6.40;5.30;;;;;;;;;;5031639;28;20491;-57
2023/04/18 02:25:28;;;;;;;5.70;5.10;;;;;;;;;;5013821;28;20716;-57
2023/04/18 02:27:54;;;;;;;6.60;5.50;;;;;;;;;;5013877;28;20037;-57
2023/04/18 02:30:20;;;;;;;6.30;5.88;;;;;;;;;;5030405;28;20038;-57
2023/04/18 02:32:45;;;;;;;6.82;6.10;;;;;;;;;;5032524;28;20021;-57
2023/04/18 02:35:11;;;;;;;6.22;5.63;;;;;;;;;;5035806;28;20052;-57
2023/04/18 02:37:38;;;;;;;6.30;5.80;;;;;;;;;;5034238;28;20108;-57
2023/04/18 02:40:03;;;;;;;6.55;6.05;;;;;;;;;;5034654;28;20114;-58
2023/04/18 02:42:30;;;;;;;6.45;5.93;;;;;;;;;;5034486;28;20045;-58
2023/04/18 02:44:56;;;;;;;6.40;5.78;;;;;;;;;;5000674;28;20024;-59
2023/04/18 02:47:22;;;;;;;6.30;5.75;;;;;;;;;;5033215;28;20098;-60
2023/04/18 02:49:47;;;;;;;5.82;5.32;;;;;;;;;;5016990;28;20167;-59
2023/04/18 02:52:12;;;;;;;6.30;5.80;;;;;;;;;;5016785;28;20033;-59
2023/04/18 02:54:38;;;;;;;6.43;5.93;;;;;;;;;;5033063;28;20034;-59
2023/04/18 02:57:08;;;;;;;6.63;6.03;;;;;;;;;;5016901;28;20033;-59
2023/04/18 02:59:52;;;;;;;6.70;6.03;;;;;;;;;;5016057;28;20061;-59
2023/04/18 03:02:19;;;;;;;9.30;6.10;;;;;;;;;;5034587;28;20081;-58
2023/04/18 03:04:50;;;;;;;7.38;6.68;;;;;;;;;;5016562;28;20392;-58
2023/04/18 03:07:15;;;;;;;6.68;6.05;;;;;;;;;;5016411;28;20033;-58
2023/04/18 03:09:41;;;;;;;8.15;6.88;;;;;;;;;;5016328;28;20057;-57
2023/04/18 03:12:15;;;;;;;7.40;6.75;;;;;;;;;;5047793;28;20517;-58
2023/04/18 03:14:43;;;;;;;7.25;6.60;;;;;;;;;;5036297;28;20037;-58
2023/04/18 03:17:08;;;;;;;9.60;7.28;;;;;;;;;;5036054;28;20021;-58
2023/04/18 03:19:38;;;;;;;8.50;6.70;;;;;;;;;;5035354;28;20116;-58
2023/04/18 03:22:08;;;;;;;7.38;6.68;;;;;;;;;;5035353;28;20399;-58
2023/04/18 03:24:36;;;;;;;7.78;6.97;;;;;;;;;;5035379;28;20087;-58
2023/04/18 03:27:04;;;;;;;8.60;7.38;;;;;;;;;;5035597;28;20037;-59
2023/04/18 03:29:32;;;;;;;7.22;6.53;;;;;;;;;;5054002;28;20035;-58
2023/04/18 03:31:57;;;;;;;7.65;6.95;;;;;;;;;;5035679;28;20033;-59
2023/04/18 03:34:23;;;;;;;8.82;7.10;;;;;;;;;;5053780;28;20590;-59
2023/04/18 03:36:48;;;;;;;8.23;7.35;;;;;;;;;;5035796;28;20096;-59
2023/04/18 03:39:15;;;;;;;8.13;7.43;;;;;;;;;;5035673;28;20032;-59
2023/04/18 03:41:41;;;;;;;7.63;6.93;;;;;;;;;;5034489;28;20025;-59
2023/04/18 03:44:07;;;;;;;8.82;7.10;;;;;;;;;;5034013;28;20029;-59
2023/04/18 03:46:35;;;;;;;8.23;7.43;;;;;;;;;;5033668;28;20025;-58
2023/04/18 03:49:00;;;;;;;8.52;7.70;;;;;;;;;;5035409;28;20479;-58
2023/04/18 03:51:26;;;;;;;8.70;6.93;;;;;;;;;;5035575;28;20047;-58
2023/04/18 03:53:51;;;;;;;8.50;7.10;;;;;;;;;;5053215;28;20101;-58
2023/04/18 03:56:17;;;;;;;8.15;7.13;;;;;;;;;;5053078;28;20147;-58
2023/04/18 03:58:48;;;;;;;8.88;8.00;;;;;;;;;;5053287;28;20032;-57
2023/04/18 04:01:15;;;;;;;10.18;7.85;;;;;;;;;;5037552;28;20040;-57
2023/04/18 04:03:40;;;;;;;7.93;7.20;;;;;;;;;;5035924;28;20025;-57
2023/04/18 04:06:06;;;;;;;9.32;7.38;;;;;;;;;;5055519;28;20023;-57
2023/04/18 04:08:31;;;;;;;9.25;8.30;;;;;;;;;;5037919;28;20467;-57
2023/04/18 04:10:57;;;;;;;8.20;7.40;;;;;;;;;;5055489;28;20116;-57
2023/04/18 04:13:23;;;;;;;8.27;7.43;;;;;;;;;;5054018;28;20415;-57
2023/04/18 04:15:49;;;;;;;8.85;7.95;;;;;;;;;;5037714;28;20035;-57
2023/04/18 04:18:14;;;;;;;8.90;8.00;;;;;;;;;;5037534;28;20025;-57
2023/04/18 04:20:43;;;;;;;9.10;8.20;;;;;;;;;;5037296;28;20029;-57
2023/04/18 04:23:12;;;;;;;8.98;8.07;;;;;;;;;;5037371;28;20021;-57
2023/04/18 04:25:38;;;;;;;13.07;11.18;;;;;;;;;;5054487;28;20088;-57
2023/04/18 04:28:13;;;;;;;16.77;15.07;;;;;;;;;;5036841;28;20057;-57
2023/04/18 04:30:49;;;;;;;55.10;49.50;;;;;;;;;;5039397;28;20091;-57
2023/04/18 04:33:19;;;;;;;22.23;20.05;;;;;;;;;;5037456;28;20033;-56
2023/04/18 04:35:46;;;;;;;19.40;17.38;;;;;;;;;;5020894;28;20044;-56
2023/04/18 04:38:13;;;;;;;12.70;11.43;;;;;;;;;;5037717;28;20065;-56
2023/04/18 04:40:43;;;;;;;12.00;10.57;;;;;;;;;;5037002;28;20029;-56
2023/04/18 04:43:11;;;;;;;12.45;10.23;;;;;;;;;;5037339;28;20025;-57
2023/04/18 04:45:38;;;;;;;10.43;9.32;;;;;;;;;;5037558;28;20024;-57
2023/04/18 04:48:04;;;;;;;11.73;8.65;;;;;;;;;;5055062;28;20037;-57
2023/04/18 04:50:29;;;;;;;9.75;8.50;;;;;;;;;;5037029;28;20020;-57
2023/04/18 04:52:54;;;;;;;14.27;9.43;;;;;;;;;;5054281;28;20390;-57
2023/04/18 04:55:20;;;;;;;12.10;8.05;;;;;;;;;;5036497;28;20039;-57
2023/04/18 04:57:46;;;;;;;10.23;9.23;;;;;;;;;;5036734;28;20424;-57
2023/04/18 05:00:28;;;;;;;9.90;8.90;;;;;;;;;;5055144;28;20145;-56
2023/04/18 05:02:54;;;;;;;11.30;10.20;;;;;;;;;;5036727;28;20044;-56
2023/04/18 05:05:20;;;;;;;13.73;11.57;;;;;;;;;;5036580;28;20036;-56
2023/04/18 05:07:46;;;;;;;15.02;13.43;;;;;;;;;;5036248;28;20368;-56
2023/04/18 05:10:12;;;;;;;15.00;11.85;;;;;;;;;;5054504;28;20464;-56
2023/04/18 05:12:37;;;;;;;18.13;16.23;;;;;;;;;;5053977;28;20116;-56
2023/04/18 05:15:03;;;;;;;14.60;12.30;;;;;;;;;;5036734;28;20052;-56
2023/04/18 05:17:28;;;;;;;16.65;14.88;;;;;;;;;;5054563;28;20025;-56
2023/04/18 05:19:53;;;;;;;12.40;11.10;;;;;;;;;;5054235;28;20494;-56
2023/04/18 05:22:19;;;;;;;9.90;8.90;;;;;;;;;;5054484;28;20483;-56
2023/04/18 05:24:45;;;;;;;13.25;11.95;;;;;;;;;;5036670;28;20067;-56
2023/04/18 05:27:12;;;;;;;12.48;11.18;;;;;;;;;;5036705;28;20033;-56
2023/04/18 05:29:37;;;;;;;12.32;11.07;;;;;;;;;;5054649;28;20013;-56
2023/04/18 05:32:02;;;;;;;10.23;9.23;;;;;;;;;;5036600;28;20040;-56
2023/04/18 05:34:28;;;;;;;11.75;9.55;;;;;;;;;;5054381;28;20362;-56
2023/04/18 05:36:53;;;;;;;9.63;8.68;;;;;;;;;;5035314;28;20036;-56
2023/04/18 05:39:18;;;;;;;10.82;9.57;;;;;;;;;;5034115;28;20024;-56
2023/04/18 05:41:44;;;;;;;9.90;8.90;;;;;;;;;;5051343;28;20647;-56
2023/04/18 05:44:09;;;;;;;13.90;11.43;;;;;;;;;;5051575;28;20074;-56
2023/04/18 05:46:34;;;;;;;10.88;8.55;;;;;;;;;;5034725;28;20356;-55
2023/04/18 05:49:00;;;;;;;10.82;9.35;;;;;;;;;;5034269;28;20036;-56
2023/04/18 05:51:27;;;;;;;10.07;8.60;;;;;;;;;;5051954;28;20029;-56
2023/04/18 05:53:52;;;;;;;11.68;8.98;;;;;;;;;;5051837;28;20033;-56
2023/04/18 05:56:18;;;;;;;12.00;9.00;;;;;;;;;;5034410;28;20032;-56
2023/04/18 05:58:44;;;;;;;10.15;8.75;;;;;;;;;;5052306;28;20033;-56
2023/04/18 06:01:10;;;;;;;10.75;9.43;;;;;;;;;;5052979;28;20048;-56
2023/04/18 06:03:35;;;;;;;13.05;9.77;;;;;;;;;;5035723;28;20029;-55
2023/04/18 06:06:00;;;;;;;12.40;10.05;;;;;;;;;;5053641;28;20033;-56
2023/04/18 06:08:26;;;;;;;13.40;9.75;;;;;;;;;;5052809;28;20025;-63
2023/04/18 06:10:51;;;;;;;10.45;8.52;;;;;;;;;;5053453;28;20115;-63
2023/04/18 06:13:16;;;;;;;10.68;9.57;;;;;;;;;;5053479;28;20121;-56
2023/04/18 06:15:42;;;;;;;9.45;8.40;;;;;;;;;;5053448;28;20033;-63
2023/04/18 06:18:09;;;;;;;10.52;8.25;;;;;;;;;;5053601;28;20112;-63
2023/04/18 06:20:34;;;;;;;10.88;9.32;;;;;;;;;;5053406;28;20037;-63
2023/04/18 06:23:00;;;;;;;10.15;8.48;;;;;;;;;;5053352;28;20086;-63
2023/04/18 06:25:25;;;;;;;10.27;9.20;;;;;;;;;;5053350;28;20112;-63
2023/04/18 06:27:51;;;;;;;12.05;9.63;;;;;;;;;;5053284;28;20036;-63
2023/04/18 06:30:18;;;;;;;10.27;8.88;;;;;;;;;;5053294;28;20017;-63
2023/04/18 06:32:44;;;;;;;11.70;9.05;;;;;;;;;;5036040;28;20387;-63
2023/04/18 06:35:09;;;;;;;10.27;9.27;;;;;;;;;;5035655;28;20032;-63
2023/04/18 06:37:34;;;;;;;9.98;8.95;;;;;;;;;;5035339;28;20124;-63
2023/04/18 06:40:00;;;;;;;11.05;9.45;;;;;;;;;;5053335;28;20040;-63
2023/04/18 06:42:25;;;;;;;10.48;8.88;;;;;;;;;;5053233;28;20032;-63
2023/04/18 06:44:52;;;;;;;9.80;8.55;;;;;;;;;;5035306;28;20386;-63
2023/04/18 06:47:18;;;;;;;14.18;9.68;;;;;;;;;;5053335;28;20104;-63
2023/04/18 06:49:43;;;;;;;9.50;8.60;;;;;;;;;;5035197;28;20086;-63
2023/04/18 06:52:08;;;;;;;10.02;8.80;;;;;;;;;;5052829;28;20104;-63
2023/04/18 06:54:34;;;;;;;12.13;9.35;;;;;;;;;;5053019;28;20086;-63
2023/04/18 06:57:00;;;;;;;9.63;8.25;;;;;;;;;;5052973;28;20029;-63
2023/04/18 06:59:26;;;;;;;8.90;8.00;;;;;;;;;;5053080;28;20529;-63
2023/04/18 07:01:51;;;;;;;9.50;8.50;;;;;;;;;;5052868;28;20028;-63
2023/04/18 07:04:16;;;;;;;9.80;8.27;;;;;;;;;;5052946;28;20029;-63
2023/04/18 07:06:42;;;;;;;11.05;8.27;;;;;;;;;;5052924;28;20025;-63
2023/04/18 07:09:07;;;;;;;10.23;8.43;;;;;;;;;;5052891;28;20029;-63
2023/04/18 07:11:33;;;;;;;8.60;7.70;;;;;;;;;;5035095;28;20041;-63
2023/04/18 07:13:58;;;;;;;9.50;8.43;;;;;;;;;;5053227;28;20032;-63
2023/04/18 07:16:23;;;;;;;8.77;7.75;;;;;;;;;;5052821;28;20145;-63
2023/04/18 07:18:50;;;;;;;9.13;8.07;;;;;;;;;;5053767;28;20024;-63
2023/04/18 07:21:16;;;;;;;13.48;8.32;;;;;;;;;;5056319;28;20072;-63
2023/04/18 07:23:41;;;;;;;9.35;8.35;;;;;;;;;;5056457;28;20102;-63
2023/04/18 07:26:08;;;;;;;9.75;8.50;;;;;;;;;;5056404;28;20025;-63
2023/04/18 07:28:33;;;;;;;10.45;8.25;;;;;;;;;;5056255;28;20036;-62
2023/04/18 07:30:59;;;;;;;11.50;8.27;;;;;;;;;;5056356;28;20032;-62
2023/04/18 07:33:25;;;;;;;11.02;8.60;;;;;;;;;;5038349;28;20053;-62
2023/04/18 07:35:51;;;;;;;7.95;7.20;;;;;;;;;;5056129;28;20076;-62
2023/04/18 07:38:17;;;;;;;8.57;7.57;;;;;;;;;;5056180;28;20487;-62
2023/04/18 07:40:45;;;;;;;9.32;7.50;;;;;;;;;;5055807;28;20108;-62
2023/04/18 07:43:10;;;;;;;8.55;7.07;;;;;;;;;;5038242;28;20017;-63
2023/04/18 07:45:37;;;;;;;8.73;7.82;;;;;;;;;;5038048;28;20103;-62
2023/04/18 07:48:02;;;;;;;10.07;7.68;;;;;;;;;;5055922;28;20017;-62
2023/04/18 07:50:28;;;;;;;9.63;6.95;;;;;;;;;;5038003;28;20039;-62
2023/04/18 07:52:53;;;;;;;9.02;7.82;;;;;;;;;;5055786;28;20049;-62
2023/04/18 07:55:19;;;;;;;8.75;7.80;;;;;;;;;;5055773;28;20029;-63
2023/04/18 07:57:49;;;;;;;7.40;6.70;;;;;;;;;;5055729;28;20467;-62
2023/04/18 08:00:15;;;;;;;9.90;7.28;;;;;;;;;;5055880;28;20040;-62
2023/04/18 08:02:40;;;;;;;8.75;6.93;;;;;;;;;;5055704;28;20033;-62
2023/04/18 08:05:06;;;;;;;15.00;9.00;;;;;;;;;;5055568;28;20029;-62
2023/04/18 08:07:31;;;;;;;10.00;7.53;;;;;;;;;;5055515;28;20029;-62
2023/04/18 08:09:56;;;;;;;12.65;8.95;;;;;;;;;;5055480;28;20532;-62
2023/04/18 08:12:21;;;;;;;8.63;6.60;;;;;;;;;;5055515;28;20048;-63
2023/04/18 08:14:47;;;;;;;8.35;6.60;;;;;;;;;;5055412;28;20087;-63
2023/04/18 08:17:12;;;;;;;7.95;7.10;;;;;;;;;;5055493;28;20013;-63
2023/04/18 08:19:37;;;;;;;8.48;7.13;;;;;;;;;;5055301;28;20082;-63
2023/04/18 08:22:07;;;;;;;7.30;6.60;;;;;;;;;;5055142;28;20029;-62
2023/04/18 08:24:32;;;;;;;7.13;6.40;;;;;;;;;;5055269;28;20029;-63
2023/04/18 08:26:57;;;;;;;8.93;6.60;;;;;;;;;;5055216;28;20029;-62
2023/04/18 08:29:23;;;;;;;9.75;7.82;;;;;;;;;;5055095;28;20471;-62
2023/04/18 08:31:48;;;;;;;11.38;8.70;;;;;;;;;;5054318;28;20058;-62
2023/04/18 08:34:13;;;;;;;9.07;7.10;;;;;;;;;;5055031;28;20108;-63
2023/04/18 08:36:38;;;;;;;6.70;6.10;;;;;;;;;;5055013;28;20024;-62
2023/04/18 08:39:05;;;;;;;8.32;6.45;;;;;;;;;;5054862;28;20035;-62
2023/04/18 08:41:32;;;;;;;8.27;6.78;;;;;;;;;;5054822;28;20033;-62
2023/04/18 08:43:57;;;;;;;6.90;6.20;;;;;;;;;;5054863;28;20112;-62
2023/04/18 08:46:23;;;;;;;8.75;6.32;;;;;;;;;;5054791;28;20103;-63
2023/04/18 08:48:48;;;;;;;7.78;6.60;;;;;;;;;;5054756;28;20024;-63
2023/04/18 08:51:14;;;;;;;9.18;7.32;;;;;;;;;;5054673;28;20443;-62
2023/04/18 08:53:40;;;;;;;10.15;8.63;;;;;;;;;;5036614;28;20056;-63
2023/04/18 08:56:09;;;;;;;8.10;7.15;;;;;;;;;;5054849;28;20029;-62
2023/04/18 08:58:34;;;;;;;11.30;7.75;;;;;;;;;;5054561;28;20037;-62
2023/04/18 09:01:00;;;;;;;10.77;8.05;;;;;;;;;;5054525;28;20052;-63
2023/04/18 09:03:36;;;;;;;8.02;6.95;;;;;;;;;;5054454;28;20549;-62
2023/04/18 09:06:05;;;;;;;7.13;6.47;;;;;;;;;;5054517;28;20028;-63
2023/04/18 09:08:31;;;;;;;7.13;6.40;;;;;;;;;;5054564;28;20124;-63
2023/04/18 09:11:17;;;;;;;5.45;4.95;;;;;;;;;;5054560;28;20092;-63
2023/04/18 09:13:45;;;;;;;12.60;8.50;;;;;;;;;;5054105;28;20028;-62
2023/04/18 09:16:13;;;;;;;6.30;5.70;;;;;;;;;;5054242;28;20069;-62
2023/04/18 09:18:41;;;;;;;7.82;5.88;;;;;;;;;;5054305;28;20537;-63
2023/04/18 09:21:18;;;;;;;5.20;4.60;;;;;;;;;;5036175;28;20124;-62
2023/04/18 09:23:46;;;;;;;6.57;4.90;;;;;;;;;;5054325;28;20029;-63
2023/04/18 09:26:12;;;;;;;5.25;4.75;;;;;;;;;;5054068;28;20455;-62
2023/04/18 09:28:40;;;;;;;7.45;5.05;;;;;;;;;;5054113;28;20104;-62
2023/04/18 09:31:13;;;;;;;7.82;5.35;;;;;;;;;;5054055;28;20108;-62
2023/04/18 09:33:41;;;;;;;5.53;5.03;;;;;;;;;;5054041;28;20473;-63
2023/04/18 09:36:17;;;;;;;6.32;5.72;;;;;;;;;;5053915;28;20090;-63
2023/04/18 09:38:42;;;;;;;7.40;5.47;;;;;;;;;;5054039;28;20487;-62
2023/04/18 09:41:09;;;;;;;5.15;4.75;;;;;;;;;;5053781;28;20107;-63
2023/04/18 09:43:34;;;;;;;5.95;5.30;;;;;;;;;;5053782;28;20486;-63
2023/04/18 09:46:00;;;;;;;6.10;5.18;;;;;;;;;;5053772;28;20014;-63
2023/04/18 09:48:25;;;;;;;5.68;5.10;;;;;;;;;;5053714;28;20040;-63
2023/04/18 09:50:52;;;;;;;5.53;4.80;;;;;;;;;;5053814;28;20025;-63
2023/04/18 09:53:18;;;;;;;6.15;4.50;;;;;;;;;;5053477;28;20053;-63
2023/04/18 09:55:43;;;;;;;6.75;4.68;;;;;;;;;;5036000;28;20082;-63
2023/04/18 09:58:09;;;;;;;6.38;4.50;;;;;;;;;;5053614;28;20036;-63
2023/04/18 10:00:35;;;;;;;5.10;4.35;;;;;;;;;;5053473;28;20040;-63
2023/04/18 10:03:08;;;;;;;5.97;4.70;;;;;;;;;;5053776;28;20047;-63
2023/04/18 10:05:35;;;;;;;5.15;4.75;;;;;;;;;;5053554;28;20033;-63
2023/04/18 10:08:00;;;;;;;5.28;4.60;;;;;;;;;;5053548;28;20039;-63
2023/04/18 10:10:26;;;;;;;4.90;4.50;;;;;;;;;;5053674;28;20037;-63
2023/04/18 10:12:53;;;;;;;5.32;4.82;;;;;;;;;;5053666;28;20032;-63
2023/04/18 10:15:19;;;;;;;5.53;5.03;;;;;;;;;;5053552;28;20025;-63
2023/04/18 10:17:54;;;;;;;4.88;4.53;;;;;;;;;;5053809;28;20455;-62
2023/04/18 10:20:27;;;;;;;5.25;4.85;;;;;;;;;;5035450;28;20037;-63
2023/04/18 10:22:53;;;;;;;5.43;4.72;;;;;;;;;;5053401;28;20029;-63
2023/04/18 10:25:33;;;;;;;5.07;4.57;;;;;;;;;;5053362;28;20028;-63
2023/04/18 10:28:05;;;;;;;6.28;4.45;;;;;;;;;;5035620;28;20033;-63
2023/04/18 10:30:39;;;;;;;7.43;4.82;;;;;;;;;;5053393;28;20061;-63
2023/04/18 10:33:21;;;;;;;4.55;4.05;;;;;;;;;;5053315;28;20061;-62
2023/04/18 10:35:55;;;;;;;6.70;5.35;;;;;;;;;;5053356;28;20056;-63
2023/04/18 10:38:22;;;;;;;4.90;4.38;;;;;;;;;;5053353;28;20037;-55
2023/04/18 10:40:47;;;;;;;5.28;4.53;;;;;;;;;;5053279;28;20021;-63
2023/04/18 10:43:12;;;;;;;5.65;5.05;;;;;;;;;;5035635;28;20074;-63
2023/04/18 10:45:38;;;;;;;4.43;4.03;;;;;;;;;;5053172;28;20372;-63
2023/04/18 10:48:28;;;;;;;5.85;4.22;;;;;;;;;;5053162;28;20162;-63
2023/04/18 10:51:12;;;;;;;5.65;4.57;;;;;;;;;;5053411;28;20044;-63
2023/04/18 10:53:38;;;;;;;5.13;4.63;;;;;;;;;;5053442;28;20080;-63
2023/04/18 10:56:04;;;;;;;6.53;4.13;;;;;;;;;;5056930;28;20139;-63
2023/04/18 10:58:33;;;;;;;4.70;4.30;;;;;;;;;;5057235;28;20024;-63
2023/04/18 11:00:58;;;;;;;4.97;4.57;;;;;;;;;;5056826;28;20090;-63
2023/04/18 11:03:31;;;;;;;6.05;4.38;;;;;;;;;;5056777;28;20025;-63
2023/04/18 11:06:08;;;;;;;4.53;4.22;;;;;;;;;;5067962;22;20054;-62
2023/04/18 11:09:06;;;;;;;5.15;4.18;;;;;;;;;;5076035;22;20053;-56
2023/04/18 11:11:32;;;;;;;4.15;3.75;;;;;;;;;;5064284;23;20036;-62
2023/04/18 11:13:58;;;;;;;4.38;4.00;;;;;;;;;;5071883;22;20124;-56
2023/04/18 11:16:42;;;;;;;5.53;4.75;;;;;;;;;;5050173;22;20065;-55
2023/04/18 11:19:30;;;;;;;3.50;3.20;;;;;;;;;;5056583;23;20042;-56
2023/04/18 11:21:58;;;;;;;3.95;3.20;;;;;;;;;;5015294;28;20484;-55
2023/04/18 11:24:24;;;;;;;4.25;3.00;;;;;;;;;;5015513;28;20040;-55
2023/04/18 11:26:52;;;;;;;3.55;2.90;;;;;;;;;;5017227;28;20049;-56
2023/04/18 11:29:17;;;;;;;4.40;4.00;;;;;;;;;;5016675;28;20030;-56
2023/04/18 11:31:48;;;;;;;5.10;3.53;;;;;;;;;;5016893;28;20117;-55
2023/04/18 11:34:13;;;;;;;3.40;3.10;;;;;;;;;;5016594;28;20038;-55
2023/04/18 11:36:40;;;;;;;4.70;3.20;;;;;;;;;;5017297;28;20037;-56
2023/04/18 11:39:05;;;;;;;7.43;3.70;;;;;;;;;;5016714;28;20048;-55
2023/04/18 11:41:30;;;;;;;3.33;3.03;;;;;;;;;;5016883;28;20030;-55
2023/04/18 11:43:56;;;;;;;3.45;3.15;;;;;;;;;;5016395;28;20388;-55
2023/04/18 11:46:21;;;;;;;3.40;2.85;;;;;;;;;;5016855;28;20107;-55
2023/04/18 11:48:49;;;;;;;4.53;3.67;;;;;;;;;;5016549;28;20160;-56
2023/04/18 11:51:30;;;;;;;3.08;2.83;;;;;;;;;;5016244;28;20014;-56
2023/04/18 11:53:55;;;;;;;3.95;2.75;;;;;;;;;;5016722;28;20030;-55
2023/04/18 11:56:20;;;;;;;3.38;2.90;;;;;;;;;;5016132;28;20045;-55
2023/04/18 11:58:52;;;;;;;4.25;3.22;;;;;;;;;;5016107;28;20034;-55
2023/04/18 12:01:18;;;;;;;3.28;3.00;;;;;;;;;;5015923;28;20036;-55
2023/04/18 12:03:58;;;;;;;4.20;2.80;;;;;;;;;;5016016;28;20022;-56
2023/04/18 12:06:23;;;;;;;2.60;2.40;;;;;;;;;;5013490;28;20096;-55
2023/04/18 12:08:48;;;;;;;2.85;2.47;;;;;;;;;;5016173;28;20018;-55
2023/04/18 12:11:18;;;;;;;4.03;3.15;;;;;;;;;;5016134;28;20045;-55
2023/04/18 12:13:44;;;;;;;5.80;3.70;;;;;;;;;;5016104;28;20044;-56
2023/04/18 12:16:11;;;;;;;3.83;3.30;;;;;;;;;;5016304;28;20038;-56
2023/04/18 12:18:36;;;;;;;2.83;2.63;;;;;;;;;;5015992;28;20033;-55
2023/04/18 12:21:04;;;;;;;3.47;3.05;;;;;;;;;;5015566;28;20469;-56
2023/04/18 12:23:37;;;;;;;3.72;2.65;;;;;;;;;;5015882;28;20022;-56
2023/04/18 12:26:06;;;;;;;5.50;3.38;;;;;;;;;;5015869;28;20040;-55
2023/04/18 12:28:32;;;;;;;3.88;2.75;;;;;;;;;;5015785;28;20112;-55
2023/04/18 12:30:58;;;;;;;4.28;3.05;;;;;;;;;;5016019;28;20134;-55
2023/04/18 12:33:23;;;;;;;2.80;2.60;;;;;;;;;;5015469;28;20065;-55
2023/04/18 12:35:49;;;;;;;3.05;2.75;;;;;;;;;;5015365;28;20109;-55
2023/04/18 12:38:18;;;;;;;5.75;3.30;;;;;;;;;;5015631;28;20058;-55
2023/04/18 12:40:43;;;;;;;3.28;2.95;;;;;;;;;;5015242;28;20030;-55
2023/04/18 12:43:08;;;;;;;2.83;2.63;;;;;;;;;;5015215;28;20075;-55
2023/04/18 12:45:35;;;;;;;2.50;2.40;;;;;;;;;;5015455;28;20096;-56
2023/04/18 12:48:00;;;;;;;2.83;2.60;;;;;;;;;;5015166;28;20022;-56
2023/04/18 12:50:26;;;;;;;3.83;3.47;;;;;;;;;;5015398;28;20552;-55
2023/04/18 12:52:52;;;;;;;2.58;2.42;;;;;;;;;;5015344;28;20113;-55
2023/04/18 12:55:18;;;;;;;3.58;2.85;;;;;;;;;;5015286;28;20088;-55
2023/04/18 12:57:43;;;;;;;3.28;2.97;;;;;;;;;;5015022;28;20415;-55
2023/04/18 13:00:09;;;;;;;3.45;3.15;;;;;;;;;;5015104;28;20036;-55
2023/04/18 13:02:36;;;;;;;2.65;2.45;;;;;;;;;;5015198;28;20025;-56
2023/04/18 13:05:02;;;;;;;3.25;2.70;;;;;;;;;;5014817;28;20079;-55
2023/04/18 13:07:27;;;;;;;4.95;3.10;;;;;;;;;;5015361;28;20034;-55
2023/04/18 13:09:52;;;;;;;5.18;3.00;;;;;;;;;;5015044;28;20022;-55
2023/04/18 13:12:18;;;;;;;3.00;2.80;;;;;;;;;;5014734;28;20041;-55
2023/04/18 13:14:43;;;;;;;3.22;2.90;;;;;;;;;;5015007;28;20061;-55
2023/04/18 13:17:08;;;;;;;3.88;3.42;;;;;;;;;;5014588;28;20072;-55
2023/04/18 13:19:34;;;;;;;2.97;2.67;;;;;;;;;;5013129;28;20029;-56
2023/04/18 13:22:00;;;;;;;7.30;3.83;;;;;;;;;;4996119;28;20034;-55
2023/04/18 13:24:25;;;;;;;3.35;2.88;;;;;;;;;;5014715;28;20028;-55
2023/04/18 13:26:51;;;;;;;2.80;2.60;;;;;;;;;;5014755;28;20100;-55
2023/04/18 13:29:16;;;;;;;4.72;3.72;;;;;;;;;;5014965;28;20033;-55
2023/04/18 13:31:41;;;;;;;3.08;2.88;;;;;;;;;;5014788;28;20033;-55
2023/04/18 13:34:08;;;;;;;6.53;3.22;;;;;;;;;;5014801;28;20109;-55
2023/04/18 13:36:34;;;;;;;5.18;3.45;;;;;;;;;;5014810;28;20364;-55
2023/04/18 13:38:59;;;;;;;4.43;3.42;;;;;;;;;;5014378;28;20120;-55
2023/04/18 13:41:25;;;;;;;3.00;2.15;;;;;;;;;;5014340;28;20073;-55
2023/04/18 13:43:50;;;;;;;2.80;2.45;;;;;;;;;;5014488;28;20104;-55
2023/04/18 13:46:16;;;;;;;12.85;8.25;;;;;;;;;;5014442;28;20101;-55
2023/04/18 13:48:41;;;;;;;7.05;6.20;;;;;;;;;;4996559;28;20464;-55
2023/04/18 13:51:07;;;;;;;9.07;6.00;;;;;;;;;;5014504;28;20057;-56
2023/04/18 13:53:32;;;;;;;9.13;7.40;;;;;;;;;;5014095;28;20056;-55
2023/04/18 13:55:57;;;;;;;10.05;6.90;;;;;;;;;;5014362;28;20033;-55
2023/04/18 13:58:23;;;;;;;3.35;3.00;;;;;;;;;;5013871;28;20460;-55
2023/04/18 14:00:48;;;;;;;11.23;7.93;;;;;;;;;;5014619;28;20108;-55
2023/04/18 14:03:14;;;;;;;7.03;6.32;;;;;;;;;;5014490;28;20476;-55
2023/04/18 14:05:39;;;;;;;6.00;4.38;;;;;;;;;;5014483;28;20160;-55
2023/04/18 14:08:04;;;;;;;4.72;4.18;;;;;;;;;;5013942;28;20072;-55
2023/04/18 14:10:30;;;;;;;5.15;3.90;;;;;;;;;;5013508;28;20445;-56
2023/04/18 14:12:55;;;;;;;10.05;7.30;;;;;;;;;;4996429;28;20511;-56
2023/04/18 14:15:21;;;;;;;9.05;7.15;;;;;;;;;;4996706;28;20072;-56
2023/04/18 14:17:46;;;;;;;15.63;7.40;;;;;;;;;;5013895;28;20040;-56
2023/04/18 14:20:14;;;;;;;26.45;12.25;;;;;;;;;;5014007;28;20124;-56
2023/04/18 14:22:52;;;;;;;18.00;12.48;;;;;;;;;;5013844;28;20030;-63
2023/04/18 14:25:46;;;;;;;16.13;13.43;;;;;;;;;;4979319;28;20054;-56
2023/04/18 14:28:29;;;;;;;10.88;9.30;;;;;;;;;;5010828;28;20030;-62
2023/04/18 14:31:05;;;;;;;8.15;7.18;;;;;;;;;;5000143;28;20037;-63
2023/04/18 14:33:34;;;;;;;7.07;5.10;;;;;;;;;;5000572;28;20046;-56
2023/04/18 14:36:03;;;;;;;6.88;6.05;;;;;;;;;;5018097;28;20025;-56
2023/04/18 14:38:28;;;;;;;8.52;5.95;;;;;;;;;;5017664;28;20460;-56